createdAt,value
2023-03-02T00:01:39.468Z,14.20
2023-03-02T00:04:08.664Z,14.20
2023-03-02T00:06:37.392Z,14.21
2023-03-02T00:09:06.305Z,14.20
2023-03-02T00:11:35.732Z,14.19
2023-03-02T00:14:02.851Z,14.19
2023-03-02T00:16:29.731Z,14.19
2023-03-02T00:18:56.955Z,14.20
2023-03-02T00:21:24.801Z,14.17
2023-03-02T00:23:52.595Z,14.18
2023-03-02T00:26:20.331Z,14.17
2023-03-02T00:28:47.165Z,14.15
2023-03-02T00:31:14.254Z,14.15
2023-03-02T00:33:41.098Z,14.15
2023-03-02T00:36:16.881Z,14.14
2023-03-02T00:38:44.223Z,14.13
2023-03-02T00:41:12.518Z,14.12
2023-03-02T00:43:40.049Z,14.10
2023-03-02T00:46:22.510Z,14.11
2023-03-02T00:48:50.472Z,14.10
2023-03-02T00:51:18.082Z,14.08
2023-03-02T00:53:44.944Z,14.07
2023-03-02T00:56:12.284Z,14.07
2023-03-02T00:58:39.272Z,14.07
2023-03-02T01:01:08.838Z,14.07
2023-03-02T01:03:36.196Z,14.06
2023-03-02T01:06:04.213Z,14.07
2023-03-02T01:08:31.370Z,14.05
2023-03-02T01:11:01.511Z,14.06
2023-03-02T01:13:28.740Z,14.03
2023-03-02T01:16:02.906Z,14.02
2023-03-02T01:18:29.934Z,14.02
2023-03-02T01:21:05.886Z,14.02
2023-03-02T01:23:33.086Z,14.00
2023-03-02T01:26:00.083Z,13.98
2023-03-02T01:28:26.876Z,14.00
2023-03-02T01:30:54.447Z,13.98
2023-03-02T01:33:21.656Z,13.99
2023-03-02T01:35:48.671Z,13.96
2023-03-02T01:38:15.589Z,13.94
2023-03-02T01:40:42.348Z,13.95
2023-03-02T01:43:16.786Z,13.95
2023-03-02T01:45:54.909Z,13.96
2023-03-02T01:48:47.314Z,13.94
2023-03-02T01:51:18.593Z,13.93
2023-03-02T01:53:48.747Z,13.90
2023-03-02T01:56:23.812Z,13.89
2023-03-02T01:58:55.529Z,13.92
2023-03-02T02:01:23.091Z,13.90
2023-03-02T02:03:51.275Z,13.89
2023-03-02T02:06:49.141Z,13.88
2023-03-02T02:09:19.667Z,13.87
2023-03-02T02:11:46.649Z,13.87
2023-03-02T02:14:13.660Z,13.85
2023-03-02T02:16:41.118Z,13.85
2023-03-02T02:19:24.954Z,13.84
2023-03-02T02:21:51.904Z,13.82
2023-03-02T02:24:25.917Z,13.82
2023-03-02T02:26:54.809Z,13.81
2023-03-02T02:29:27.030Z,13.82
2023-03-02T02:31:59.234Z,13.78
2023-03-02T02:34:41.335Z,13.77
2023-03-02T02:37:33.607Z,13.77
2023-03-02T02:40:02.326Z,13.79
2023-03-02T02:42:32.740Z,13.78
2023-03-02T02:45:03.823Z,13.74
2023-03-02T02:47:30.743Z,13.76
2023-03-02T02:49:57.841Z,13.74
2023-03-02T02:52:28.202Z,13.72
2023-03-02T02:54:58.266Z,13.73
2023-03-02T02:57:28.669Z,13.74
2023-03-02T03:00:00.463Z,13.74
2023-03-02T03:02:31.011Z,13.73
2023-03-02T03:05:02.693Z,13.70
2023-03-02T03:07:31.557Z,13.70
2023-03-02T03:10:09.818Z,13.69
2023-03-02T03:12:38.745Z,13.70
2023-03-02T03:15:07.609Z,13.68
2023-03-02T03:17:34.421Z,13.67
2023-03-02T03:20:06.509Z,13.68
2023-03-02T03:22:38.625Z,13.65
2023-03-02T03:25:06.429Z,13.65
2023-03-02T03:27:33.079Z,13.62
2023-03-02T03:30:01.960Z,13.66
2023-03-02T03:32:29.062Z,13.66
2023-03-02T03:34:56.409Z,13.63
2023-03-02T03:37:24.003Z,13.63
2023-03-02T03:39:51.036Z,13.61
2023-03-02T03:42:18.101Z,13.60
2023-03-02T03:44:44.836Z,13.60
2023-03-02T03:47:11.737Z,13.59
2023-03-02T03:49:38.447Z,13.57
2023-03-02T03:52:05.278Z,13.57
2023-03-02T03:54:32.588Z,13.57
2023-03-02T03:56:59.408Z,13.57
2023-03-02T03:59:26.958Z,13.57
2023-03-02T04:01:57.162Z,13.57
2023-03-02T04:04:29.689Z,13.55
2023-03-02T04:06:56.822Z,13.54
2023-03-02T04:09:24.958Z,13.55
2023-03-02T04:11:54.608Z,13.52
2023-03-02T04:14:23.367Z,13.51
2023-03-02T04:16:53.110Z,13.51
2023-03-02T04:19:20.482Z,13.50
2023-03-02T04:21:50.746Z,13.49
2023-03-02T04:24:19.919Z,13.48
2023-03-02T04:26:49.267Z,13.48
2023-03-02T04:29:16.801Z,13.47
2023-03-02T04:31:43.720Z,13.45
2023-03-02T04:34:10.786Z,13.47
2023-03-02T04:36:39.508Z,13.45
2023-03-02T04:39:07.364Z,13.44
2023-03-02T04:41:34.728Z,13.42
2023-03-02T04:44:01.395Z,13.43
2023-03-02T04:46:28.473Z,13.42
2023-03-02T04:48:55.689Z,13.43
2023-03-02T04:51:28.585Z,13.38
2023-03-02T04:54:00.297Z,13.39
2023-03-02T04:56:27.271Z,13.41
2023-03-02T04:58:54.637Z,13.41
2023-03-02T05:01:21.302Z,13.42
2023-03-02T05:03:48.496Z,13.40
2023-03-02T05:06:15.533Z,13.40
2023-03-02T05:08:42.299Z,13.38
2023-03-02T05:11:09.102Z,13.40
2023-03-02T05:13:36.037Z,13.35
2023-03-02T05:16:03.203Z,13.35
2023-03-02T05:18:30.167Z,13.36
2023-03-02T05:20:57.406Z,13.33
2023-03-02T05:23:25.707Z,13.35
2023-03-02T05:25:55.140Z,13.33
2023-03-02T05:28:23.835Z,13.33
2023-03-02T05:30:51.138Z,13.32
2023-03-02T05:33:18.610Z,13.30
2023-03-02T05:35:45.641Z,13.32
2023-03-02T05:38:16.981Z,13.33
2023-03-02T05:40:48.542Z,13.28
2023-03-02T05:43:17.731Z,13.28
2023-03-02T05:45:45.169Z,13.27
2023-03-02T05:48:13.754Z,13.29
2023-03-02T05:50:41.046Z,13.28
2023-03-02T05:53:08.056Z,13.28
2023-03-02T05:55:36.946Z,13.26
2023-03-02T05:58:11.747Z,13.26
2023-03-02T06:00:38.453Z,13.24
2023-03-02T06:03:05.152Z,13.27
2023-03-02T06:05:31.804Z,13.24
2023-03-02T06:07:58.410Z,13.24
2023-03-02T06:10:25.710Z,13.24
2023-03-02T06:12:52.568Z,13.24
2023-03-02T06:15:19.828Z,13.24
2023-03-02T06:17:46.614Z,13.22
2023-03-02T06:20:13.895Z,13.24
2023-03-02T06:22:43.418Z,13.25
2023-03-02T06:25:13.359Z,13.25
2023-03-02T06:27:41.061Z,13.27
2023-03-02T06:30:09.192Z,13.25
2023-03-02T06:32:35.985Z,13.26
2023-03-02T06:35:04.979Z,13.28
2023-03-02T06:37:32.508Z,13.24
2023-03-02T06:39:59.320Z,13.25
2023-03-02T06:42:27.457Z,13.29
2023-03-02T06:44:55.256Z,13.31
2023-03-02T06:47:23.100Z,13.32
2023-03-02T06:49:49.997Z,13.33
2023-03-02T06:52:17.506Z,13.37
2023-03-02T06:54:44.269Z,13.39
2023-03-02T06:57:11.165Z,13.38
2023-03-02T06:59:37.907Z,13.40
2023-03-02T07:02:04.755Z,13.45
2023-03-02T07:04:31.438Z,13.44
2023-03-02T07:06:58.084Z,13.44
2023-03-02T07:09:24.909Z,13.47
2023-03-02T07:11:51.656Z,13.50
2023-03-02T07:14:18.388Z,13.55
2023-03-02T07:16:45.213Z,13.55
2023-03-02T07:19:13.598Z,13.54
2023-03-02T07:21:40.893Z,13.59
2023-03-02T07:24:11.168Z,13.64
2023-03-02T07:26:38.037Z,13.64
2023-03-02T07:29:04.822Z,13.65
2023-03-02T07:31:32.226Z,13.68
2023-03-02T07:33:59.514Z,13.68
2023-03-02T07:36:26.565Z,13.72
2023-03-02T07:38:53.480Z,13.73
2023-03-02T07:41:20.610Z,13.73
2023-03-02T07:43:47.510Z,13.75
2023-03-02T07:46:14.739Z,13.79
2023-03-02T07:48:41.758Z,13.81
2023-03-02T07:51:08.724Z,13.79
2023-03-02T07:53:38.798Z,13.82
2023-03-02T07:56:09.905Z,13.84
2023-03-02T07:58:40.142Z,13.86
2023-03-02T08:01:07.338Z,13.87
2023-03-02T08:03:34.628Z,13.89
2023-03-02T08:06:10.488Z,13.91
2023-03-02T08:08:37.577Z,13.90
2023-03-02T08:11:12.629Z,13.93
2023-03-02T08:13:40.797Z,13.95
2023-03-02T08:16:09.547Z,13.95
2023-03-02T08:18:37.720Z,13.97
2023-03-02T08:21:11.601Z,13.99
2023-03-02T08:23:38.592Z,14.00
2023-03-02T08:26:05.708Z,14.02
2023-03-02T08:28:32.479Z,14.07
2023-03-02T08:31:00.985Z,14.08
2023-03-02T08:33:31.846Z,14.09
2023-03-02T08:36:02.614Z,14.09
2023-03-02T08:38:31.814Z,14.12
2023-03-02T08:40:59.189Z,14.14
2023-03-02T08:43:26.442Z,14.14
2023-03-02T08:45:55.463Z,14.12
2023-03-02T08:48:26.104Z,14.11
2023-03-02T08:51:03.552Z,14.11
2023-03-02T08:53:37.368Z,14.08
2023-03-02T08:56:04.636Z,14.11
2023-03-02T08:58:31.432Z,14.11
2023-03-02T09:00:59.143Z,14.14
2023-03-02T09:03:32.965Z,14.17
2023-03-02T09:05:59.994Z,14.19
2023-03-02T09:08:27.020Z,14.22
2023-03-02T09:10:54.045Z,14.27
2023-03-02T09:13:21.187Z,14.28
2023-03-02T09:15:47.897Z,14.32
2023-03-02T09:18:14.876Z,14.33
2023-03-02T09:20:41.806Z,14.37
2023-03-02T09:23:08.728Z,14.40
2023-03-02T09:25:35.589Z,14.41
2023-03-02T09:28:02.633Z,14.44
2023-03-02T09:30:29.518Z,14.45
2023-03-02T09:32:56.520Z,14.48
2023-03-02T09:35:23.843Z,14.49
2023-03-02T09:37:51.264Z,14.52
2023-03-02T09:40:33.860Z,14.54
2023-03-02T09:43:16.889Z,14.55
2023-03-02T09:45:52.376Z,14.57
2023-03-02T09:48:49.375Z,14.59
2023-03-02T09:51:35.174Z,14.62
2023-03-02T09:54:13.599Z,14.65
2023-03-02T09:56:50.500Z,14.66
2023-03-02T09:59:43.740Z,14.69
2023-03-02T10:02:19.431Z,14.71
2023-03-02T10:04:50.498Z,14.75
2023-03-02T10:07:27.794Z,14.76
2023-03-02T10:10:13.555Z,14.79
2023-03-02T10:13:20.447Z,14.82
2023-03-02T10:16:05.825Z,14.85
2023-03-02T10:18:43.951Z,14.88
2023-03-02T10:21:22.712Z,14.91
2023-03-02T10:24:08.318Z,14.94
2023-03-02T10:26:48.469Z,14.97
2023-03-02T10:29:44.638Z,14.99
2023-03-02T10:32:42.762Z,15.04
2023-03-02T10:35:16.437Z,15.07
2023-03-02T10:37:43.596Z,15.09
2023-03-02T10:40:29.030Z,15.11
2023-03-02T10:42:57.929Z,15.14
2023-03-02T10:45:37.200Z,15.16
2023-03-02T10:48:11.044Z,15.20
2023-03-02T10:50:39.014Z,15.22
2023-03-02T10:53:18.685Z,15.25
2023-03-02T10:55:52.744Z,15.28
2023-03-02T10:58:26.162Z,15.29
2023-03-02T11:01:05.365Z,15.31
2023-03-02T11:03:38.454Z,15.35
2023-03-02T11:06:20.129Z,15.39
2023-03-02T11:08:46.848Z,15.43
2023-03-02T11:11:24.869Z,15.48
2023-03-02T11:13:52.957Z,15.50
2023-03-02T11:16:20.091Z,15.55
2023-03-02T11:18:49.555Z,15.59
2023-03-02T11:21:35.865Z,15.65
2023-03-02T11:24:24.351Z,15.70
2023-03-02T11:26:56.252Z,15.76
2023-03-02T11:29:48.971Z,15.82
2023-03-02T11:32:27.623Z,15.88
2023-03-02T11:35:32.671Z,15.94
2023-03-02T11:38:21.641Z,16.00
2023-03-02T11:41:14.176Z,16.05
2023-03-02T11:43:41.325Z,16.12
2023-03-02T11:46:26.736Z,16.17
2023-03-02T11:49:19.412Z,16.25
2023-03-02T11:51:58.280Z,16.30
2023-03-02T11:54:44.628Z,16.36
2023-03-02T11:57:23.261Z,16.40
2023-03-02T11:59:51.440Z,16.44
2023-03-02T12:02:21.969Z,16.49
2023-03-02T12:04:49.066Z,16.52
2023-03-02T12:07:25.947Z,16.55
2023-03-02T12:10:14.032Z,16.60
2023-03-02T12:12:58.449Z,16.65
2023-03-02T12:15:41.201Z,16.69
2023-03-02T12:18:27.452Z,16.75
2023-03-02T12:21:06.742Z,16.78
2023-03-02T12:23:37.059Z,16.82
2023-03-02T12:26:25.161Z,16.85
2023-03-02T12:29:23.019Z,16.91
2023-03-02T12:31:56.087Z,16.95
2023-03-02T12:34:35.293Z,17.00
2023-03-02T12:37:08.334Z,17.02
2023-03-02T12:40:10.449Z,17.07
2023-03-02T12:43:00.247Z,17.11
2023-03-02T12:45:38.819Z,17.12
2023-03-02T12:48:22.703Z,17.09
2023-03-02T12:50:51.253Z,17.04
2023-03-02T12:53:20.360Z,16.92
2023-03-02T12:55:47.188Z,16.83
2023-03-02T12:58:27.749Z,16.72
2023-03-02T13:00:58.173Z,16.68
2023-03-02T13:03:26.511Z,16.70
2023-03-02T13:06:02.498Z,16.71
2023-03-02T13:08:29.961Z,16.65
2023-03-02T13:11:00.426Z,16.69
2023-03-02T13:13:35.587Z,16.64
2023-03-02T13:16:05.478Z,16.66
2023-03-02T13:18:36.477Z,16.68
2023-03-02T13:21:04.639Z,16.71
2023-03-02T13:23:33.343Z,16.77
2023-03-02T13:26:05.667Z,16.91
2023-03-02T13:28:38.159Z,17.05
2023-03-02T13:31:07.744Z,17.26
2023-03-02T13:33:42.718Z,17.37
2023-03-02T13:36:21.528Z,17.41
2023-03-02T13:38:50.943Z,17.44
2023-03-02T13:41:25.469Z,17.42
2023-03-02T13:43:52.602Z,17.39
2023-03-02T13:46:20.134Z,17.38
2023-03-02T13:49:09.166Z,17.57
2023-03-02T13:51:43.752Z,17.67
2023-03-02T13:54:21.950Z,17.74
2023-03-02T13:56:51.315Z,17.75
2023-03-02T13:59:19.552Z,17.72
2023-03-02T14:01:46.555Z,17.73
2023-03-02T14:04:16.698Z,17.73
2023-03-02T14:06:44.511Z,17.72
2023-03-02T14:09:11.410Z,17.70
2023-03-02T14:11:41.763Z,17.70
2023-03-02T14:14:12.261Z,17.71
2023-03-02T14:16:39.017Z,17.72
2023-03-02T14:19:05.681Z,17.75
2023-03-02T14:21:32.835Z,17.77
2023-03-02T14:23:59.753Z,17.72
2023-03-02T14:26:33.887Z,17.76
2023-03-02T14:29:15.564Z,17.80
2023-03-02T14:31:42.279Z,17.75
2023-03-02T14:34:12.812Z,17.76
2023-03-02T14:36:40.651Z,17.73
2023-03-02T14:39:30.489Z,17.77
2023-03-02T14:41:57.420Z,17.77
2023-03-02T14:44:24.172Z,17.75
2023-03-02T14:46:51.467Z,17.79
2023-03-02T14:49:18.132Z,17.79
2023-03-02T14:51:53.351Z,17.78
2023-03-02T14:54:20.225Z,17.80
2023-03-02T14:56:49.291Z,17.80
2023-03-02T14:59:16.812Z,17.81
2023-03-02T15:01:44.798Z,17.74
2023-03-02T15:04:11.679Z,17.56
2023-03-02T15:06:40.803Z,17.66
2023-03-02T15:09:08.608Z,17.66
2023-03-02T15:11:35.518Z,17.72
2023-03-02T15:14:02.512Z,17.76
2023-03-02T15:16:29.326Z,17.81
2023-03-02T15:18:58.703Z,17.76
2023-03-02T15:21:25.628Z,17.76
2023-03-02T15:23:52.380Z,17.79
2023-03-02T15:26:19.125Z,17.78
2023-03-02T15:28:49.322Z,17.81
2023-03-02T15:31:17.366Z,17.79
2023-03-02T15:33:45.694Z,17.77
2023-03-02T15:36:13.617Z,17.77
2023-03-02T15:38:40.702Z,17.76
2023-03-02T15:44:44.557Z,17.72
2023-03-02T15:47:14.643Z,17.69
2023-03-02T15:49:41.305Z,17.69
2023-03-02T15:52:08.067Z,17.67
2023-03-02T15:54:34.762Z,17.65
2023-03-02T15:57:01.416Z,17.66
2023-03-02T15:59:30.619Z,17.65
2023-03-02T16:02:02.348Z,17.57
2023-03-02T16:04:30.839Z,17.49
2023-03-02T16:06:58.013Z,17.50
2023-03-02T16:09:26.042Z,17.52
2023-03-02T16:11:52.835Z,17.51
2023-03-02T16:14:19.503Z,17.48
2023-03-02T16:16:46.696Z,17.49
2023-03-02T16:19:17.762Z,17.44
2023-03-02T16:21:46.336Z,17.40
2023-03-02T16:24:13.293Z,17.33
2023-03-02T16:26:39.978Z,17.27
2023-03-02T16:29:09.744Z,17.21
2023-03-02T16:31:38.490Z,17.24
2023-03-02T16:34:08.992Z,17.21
2023-03-02T16:36:45.128Z,17.17
2023-03-02T16:39:15.291Z,17.13
2023-03-02T16:41:47.170Z,17.11
2023-03-02T16:44:14.768Z,17.08
2023-03-02T16:46:43.665Z,17.07
2023-03-02T16:49:12.041Z,17.06
2023-03-02T16:51:39.200Z,17.06
2023-03-02T16:54:06.370Z,17.02
2023-03-02T16:56:33.491Z,17.01
2023-03-02T16:59:00.468Z,17.00
2023-03-02T17:01:28.364Z,16.99
2023-03-02T17:03:55.276Z,16.98
2023-03-02T17:06:24.340Z,16.96
2023-03-02T17:08:51.553Z,16.96
2023-03-02T17:11:20.185Z,16.95
2023-03-02T17:13:47.331Z,16.94
2023-03-02T17:16:14.423Z,16.95
2023-03-02T17:18:41.610Z,16.93
2023-03-02T17:21:08.867Z,16.92
2023-03-02T17:23:37.158Z,16.90
2023-03-02T17:26:04.505Z,16.89
2023-03-02T17:28:31.678Z,16.88
2023-03-02T17:31:00.423Z,16.86
2023-03-02T17:33:27.929Z,16.85
2023-03-02T17:35:54.981Z,16.84
2023-03-02T17:38:22.043Z,16.80
2023-03-02T17:40:48.870Z,16.78
2023-03-02T17:43:16.101Z,16.76
2023-03-02T17:46:28.449Z,16.76
2023-03-02T17:48:58.159Z,16.74
2023-03-02T17:51:31.103Z,16.72
2023-03-02T17:53:58.132Z,16.72
2023-03-02T17:56:27.554Z,16.71
2023-03-02T17:58:57.329Z,16.69
2023-03-02T18:01:29.256Z,16.67
2023-03-02T18:03:56.463Z,16.66
2023-03-02T18:06:24.249Z,16.65
2023-03-02T18:08:52.317Z,16.65
2023-03-02T18:11:21.830Z,16.64
2023-03-02T18:13:49.576Z,16.63
2023-03-02T18:16:16.581Z,16.62
2023-03-02T18:18:43.785Z,16.62
2023-03-02T18:21:11.047Z,16.61
2023-03-02T18:23:42.289Z,16.60
2023-03-02T18:26:09.511Z,16.58
2023-03-02T18:28:37.096Z,16.57
2023-03-02T18:31:04.476Z,16.57
2023-03-02T18:33:32.007Z,16.57
2023-03-02T18:36:00.900Z,16.56
2023-03-02T18:38:31.226Z,16.55
2023-03-02T18:41:01.042Z,16.54
2023-03-02T18:43:28.901Z,16.53
2023-03-02T18:45:57.991Z,16.51
2023-03-02T18:48:25.635Z,16.50
2023-03-02T18:50:55.984Z,16.50
2023-03-02T18:53:23.239Z,16.48
2023-03-02T18:55:52.958Z,16.47
2023-03-02T18:58:25.429Z,16.46
2023-03-02T19:00:54.600Z,16.45
2023-03-02T19:03:22.697Z,16.43
2023-03-02T19:05:50.082Z,16.42
2023-03-02T19:08:23.857Z,16.41
2023-03-02T19:10:53.164Z,16.40
2023-03-02T19:13:21.332Z,16.38
2023-03-02T19:15:48.800Z,16.36
2023-03-02T19:18:20.549Z,16.37
2023-03-02T19:20:49.134Z,16.35
2023-03-02T19:23:17.496Z,16.36
2023-03-02T19:25:45.703Z,16.34
2023-03-02T19:28:13.248Z,16.35
2023-03-02T19:30:41.041Z,16.34
2023-03-02T19:33:09.584Z,16.33
2023-03-02T19:35:40.483Z,16.33
2023-03-02T19:38:09.415Z,16.31
2023-03-02T19:40:37.499Z,16.31
2023-03-02T19:43:05.771Z,16.30
2023-03-02T19:45:38.879Z,16.29
2023-03-02T19:48:06.726Z,16.28
2023-03-02T19:50:34.181Z,16.27
2023-03-02T19:53:01.437Z,16.26
2023-03-02T19:55:28.798Z,16.24
2023-03-02T19:58:00.024Z,16.22
2023-03-02T20:00:30.791Z,16.23
2023-03-02T20:02:58.515Z,16.23
2023-03-02T20:05:27.632Z,16.22
2023-03-02T20:07:55.500Z,16.20
2023-03-02T20:10:37.169Z,16.20
2023-03-02T20:13:05.750Z,16.22
2023-03-02T20:15:35.011Z,16.20
2023-03-02T20:18:02.841Z,16.18
2023-03-02T20:20:31.740Z,16.20
2023-03-02T20:23:03.083Z,16.20
2023-03-02T20:25:30.944Z,16.19
2023-03-02T20:27:59.016Z,16.19
2023-03-02T20:30:37.658Z,16.17
2023-03-02T20:33:07.352Z,16.15
2023-03-02T20:35:40.179Z,16.14
2023-03-02T20:38:19.489Z,16.13
2023-03-02T20:40:46.930Z,16.12
2023-03-02T20:43:14.959Z,16.09
2023-03-02T20:45:42.460Z,16.10
2023-03-02T20:48:12.620Z,16.08
2023-03-02T20:50:41.362Z,16.08
2023-03-02T20:53:08.830Z,16.07
2023-03-02T20:55:36.129Z,16.06
2023-03-02T20:58:12.985Z,16.05
2023-03-02T21:00:46.348Z,16.05
2023-03-02T21:03:13.512Z,16.03
2023-03-02T21:05:41.277Z,16.01
2023-03-02T21:08:13.976Z,16.01
2023-03-02T21:10:45.401Z,16.01
2023-03-02T21:13:13.664Z,15.98
2023-03-02T21:15:41.452Z,15.98
2023-03-02T21:18:11.554Z,15.97
2023-03-02T21:20:40.134Z,15.96
2023-03-02T21:23:07.707Z,15.93
2023-03-02T21:25:35.061Z,15.92
2023-03-02T21:28:02.446Z,15.91
2023-03-02T21:30:34.260Z,15.90
2023-03-02T21:33:02.329Z,15.88
2023-03-02T21:35:30.205Z,15.89
2023-03-02T21:38:07.084Z,15.86
2023-03-02T21:40:38.042Z,15.84
2023-03-02T21:43:06.610Z,15.84
2023-03-02T21:45:34.402Z,15.82
2023-03-02T21:48:01.835Z,15.83
2023-03-02T21:50:32.460Z,15.81
2023-03-02T21:53:02.376Z,15.80
2023-03-02T21:55:31.244Z,15.76
2023-03-02T21:57:59.248Z,15.76
2023-03-02T22:00:38.879Z,15.75
2023-03-02T22:03:06.646Z,15.73
2023-03-02T22:05:34.612Z,15.71
2023-03-02T22:08:02.286Z,15.70
2023-03-02T22:10:38.962Z,15.70
2023-03-02T22:13:27.911Z,15.69
2023-03-02T22:16:16.152Z,15.67
2023-03-02T22:18:48.323Z,15.65
2023-03-02T22:21:38.317Z,15.63
2023-03-02T22:24:18.154Z,15.60
2023-03-02T22:27:08.971Z,15.60
2023-03-02T22:29:45.047Z,15.58
2023-03-02T22:32:19.441Z,15.56
2023-03-02T22:34:48.946Z,15.55
2023-03-02T22:37:22.966Z,15.53
2023-03-02T22:39:53.800Z,15.52
2023-03-02T22:42:34.252Z,15.51
2023-03-02T22:45:15.241Z,15.50
2023-03-02T22:47:44.346Z,15.48
2023-03-02T22:50:29.633Z,15.47
2023-03-02T22:52:58.910Z,15.44
2023-03-02T22:55:37.121Z,15.45
2023-03-02T22:58:30.833Z,15.42
2023-03-02T23:01:02.262Z,15.42
2023-03-02T23:03:41.518Z,15.40
2023-03-02T23:06:27.515Z,15.41
2023-03-02T23:08:57.593Z,15.38
2023-03-02T23:11:25.336Z,15.39
2023-03-02T23:13:53.879Z,15.36
2023-03-02T23:16:29.396Z,15.36
2023-03-02T23:18:59.464Z,15.35
2023-03-02T23:21:46.573Z,15.32
2023-03-02T23:24:13.774Z,15.31
2023-03-02T23:26:41.134Z,15.32
2023-03-02T23:29:08.281Z,15.29
2023-03-02T23:31:35.401Z,15.29
2023-03-02T23:34:02.604Z,15.27
2023-03-02T23:36:31.357Z,15.26
2023-03-02T23:38:59.181Z,15.26
2023-03-02T23:41:27.089Z,15.27
2023-03-02T23:43:54.251Z,15.24
2023-03-02T23:46:21.841Z,15.23
2023-03-02T23:48:49.009Z,15.21
2023-03-02T23:51:16.421Z,15.21
2023-03-02T23:53:44.332Z,15.21
2023-03-02T23:56:12.004Z,15.21
2023-03-02T23:58:39.101Z,15.19
